createdAt,value
2022-11-28T00:04:17.764Z,3.50
2022-11-28T00:09:22.828Z,2.93
2022-11-28T00:14:27.710Z,4.17
2022-11-28T00:19:31.338Z,3.27
2022-11-28T00:24:34.899Z,3.13
2022-11-28T00:29:39.970Z,3.97
2022-11-28T00:34:43.780Z,6.17
2022-11-28T00:39:47.580Z,3.10
2022-11-28T00:44:52.472Z,3.23
2022-11-28T00:49:56.042Z,3.70
2022-11-28T00:54:59.686Z,3.70
2022-11-28T01:00:05.752Z,5.57
2022-11-28T01:05:10.236Z,6.43
2022-11-28T01:10:13.869Z,5.20
2022-11-28T01:15:18.766Z,4.27
2022-11-28T01:20:22.330Z,4.30
2022-11-28T01:25:26.475Z,4.83
2022-11-28T01:30:31.662Z,4.57
2022-11-28T01:35:35.209Z,3.87
2022-11-28T01:40:46.615Z,4.10
2022-11-28T01:45:52.008Z,3.93
2022-11-28T01:50:59.477Z,5.53
2022-11-28T01:56:09.713Z,4.07
2022-11-28T02:01:14.979Z,4.27
2022-11-28T02:06:21.634Z,6.33
2022-11-28T02:11:46.327Z,4.63
2022-11-28T02:17:04.803Z,5.73
2022-11-28T02:22:14.150Z,4.63
2022-11-28T02:27:51.227Z,5.93
2022-11-28T02:33:10.863Z,7.90
2022-11-28T02:38:19.670Z,4.87
2022-11-28T02:43:32.558Z,4.87
2022-11-28T02:48:42.178Z,4.70
2022-11-28T02:53:47.792Z,4.50
2022-11-28T02:58:51.398Z,3.97
2022-11-28T03:04:17.490Z,3.83
2022-11-28T03:09:50.883Z,3.80
2022-11-28T03:14:57.002Z,3.57
2022-11-28T03:20:16.733Z,3.87
2022-11-28T03:25:27.997Z,4.27
2022-11-28T03:30:37.563Z,4.80
2022-11-28T03:35:47.504Z,3.43
2022-11-28T03:40:55.103Z,5.17
2022-11-28T03:46:01.302Z,3.50
2022-11-28T03:51:10.897Z,4.27
2022-11-28T03:56:18.547Z,5.03
2022-11-28T04:01:33.199Z,4.70
2022-11-28T04:06:44.874Z,5.77
2022-11-28T04:11:53.046Z,3.90
2022-11-28T04:17:05.119Z,3.73
2022-11-28T04:22:15.364Z,4.07
2022-11-28T04:27:23.364Z,4.10
2022-11-28T04:32:30.332Z,4.10
2022-11-28T04:37:38.045Z,4.00
2022-11-28T04:42:51.298Z,6.03
2022-11-28T04:47:56.605Z,5.07
2022-11-28T04:53:07.676Z,5.33
2022-11-28T04:58:16.142Z,5.30
2022-11-28T05:03:20.251Z,4.70
2022-11-28T05:08:25.361Z,4.57
2022-11-28T05:13:28.922Z,4.87
2022-11-28T05:18:32.450Z,4.83
2022-11-28T05:23:37.771Z,5.50
2022-11-28T05:28:43.952Z,4.07
2022-11-28T05:33:47.757Z,4.83
2022-11-28T05:38:52.616Z,5.63
2022-11-28T05:43:57.449Z,3.93
2022-11-28T05:49:01.640Z,4.83
2022-11-28T05:54:07.171Z,3.50
2022-11-28T05:59:10.744Z,5.17
2022-11-28T06:04:14.375Z,5.43
2022-11-28T06:09:24.504Z,6.23
2022-11-28T06:14:29.251Z,4.90
2022-11-28T06:19:33.107Z,4.43
2022-11-28T06:24:38.004Z,3.63
2022-11-28T06:29:41.791Z,3.47
2022-11-28T06:34:45.510Z,3.63
2022-11-28T06:39:51.240Z,4.07
2022-11-28T06:44:54.775Z,6.67
2022-11-28T06:49:58.425Z,3.70
2022-11-28T06:55:03.393Z,5.30
2022-11-28T07:00:08.835Z,4.13
2022-11-28T07:05:12.489Z,4.87
2022-11-28T07:10:17.699Z,4.50
2022-11-28T07:15:21.867Z,5.50
2022-11-28T07:20:25.370Z,5.03
2022-11-28T07:25:30.259Z,4.40
2022-11-28T07:30:34.299Z,4.80
2022-11-28T07:35:38.065Z,5.07
2022-11-28T07:40:42.956Z,3.93
2022-11-28T07:46:00.115Z,4.47
2022-11-28T07:51:07.727Z,4.83
2022-11-28T07:56:15.397Z,4.80
2022-11-28T08:01:24.687Z,4.47
2022-11-28T08:06:31.544Z,6.03
2022-11-28T08:11:40.291Z,5.20
2022-11-28T08:16:45.072Z,5.90
2022-11-28T08:21:49.041Z,4.33
2022-11-28T08:26:54.264Z,5.03
2022-11-28T08:31:57.886Z,5.10
2022-11-28T08:37:01.426Z,5.83
2022-11-28T08:42:06.431Z,5.00
2022-11-28T08:47:09.949Z,4.90
2022-11-28T08:52:14.168Z,4.30
2022-11-28T08:57:19.049Z,4.13
2022-11-28T09:02:25.932Z,4.47
2022-11-28T09:07:29.921Z,4.10
2022-11-28T09:12:34.813Z,3.43
2022-11-28T09:17:38.422Z,4.73
2022-11-28T09:22:42.568Z,4.03
2022-11-28T09:27:47.466Z,4.87
2022-11-28T09:32:51.466Z,4.10
2022-11-28T09:37:55.019Z,4.10
2022-11-28T09:43:01.952Z,3.87
2022-11-28T09:48:18.563Z,4.93
2022-11-28T09:53:26.209Z,4.50
2022-11-28T09:58:37.880Z,3.73
2022-11-28T10:03:46.459Z,4.93
2022-11-28T10:09:17.715Z,4.50
2022-11-28T10:14:52.749Z,3.83
2022-11-28T10:20:02.487Z,2.90
2022-11-28T10:25:14.198Z,3.07
2022-11-28T10:30:23.602Z,3.50
2022-11-28T10:35:34.308Z,3.20
2022-11-28T10:40:43.996Z,3.60
2022-11-28T10:45:58.082Z,4.33
2022-11-28T10:51:12.343Z,4.33
2022-11-28T10:56:30.590Z,2.77
2022-11-28T11:01:38.806Z,2.70
2022-11-28T11:07:07.116Z,2.93
2022-11-28T11:12:12.889Z,3.13
2022-11-28T11:17:34.241Z,2.90
2022-11-28T11:22:39.380Z,3.43
2022-11-28T11:27:50.782Z,4.63
2022-11-28T11:32:56.883Z,2.93
2022-11-28T11:38:18.212Z,2.57
2022-11-28T11:43:29.124Z,3.97
2022-11-28T11:48:38.791Z,4.57
2022-11-28T11:53:42.313Z,2.87
2022-11-28T11:58:50.737Z,3.93
2022-11-28T12:04:08.384Z,3.53
2022-11-28T12:09:26.115Z,3.40
2022-11-28T12:14:32.480Z,2.20
2022-11-28T12:19:47.483Z,2.77
2022-11-28T12:25:02.804Z,2.23
2022-11-28T12:30:21.952Z,2.97
2022-11-28T12:35:39.399Z,2.20
2022-11-28T12:40:55.994Z,2.37
2022-11-28T12:46:06.980Z,3.73
2022-11-28T12:51:24.837Z,2.10
2022-11-28T12:56:42.121Z,2.93
2022-11-28T13:02:06.726Z,3.47
2022-11-28T13:07:25.293Z,2.73
2022-11-28T13:12:38.949Z,2.13
2022-11-28T13:17:50.420Z,2.20
2022-11-28T13:23:04.711Z,2.30
2022-11-28T13:28:15.729Z,2.00
2022-11-28T13:33:44.806Z,2.17
2022-11-28T13:39:12.419Z,2.30
2022-11-28T13:44:22.941Z,1.87
2022-11-28T13:49:29.589Z,1.93
2022-11-28T13:54:44.674Z,1.57
2022-11-28T13:59:55.788Z,1.63
2022-11-28T14:04:59.354Z,2.50
2022-11-28T14:10:30.602Z,1.40
2022-11-28T14:15:44.439Z,2.13
2022-11-28T14:20:56.410Z,1.83
2022-11-28T14:26:01.582Z,1.90
2022-11-28T14:31:23.060Z,2.03
2022-11-28T14:36:29.879Z,1.47
2022-11-28T14:43:00.141Z,1.00
2022-11-28T14:48:17.653Z,0.93
2022-11-28T14:53:45.625Z,1.07
2022-11-28T14:58:52.352Z,1.73
2022-11-28T15:04:05.466Z,1.57
2022-11-28T15:09:19.876Z,1.10
2022-11-28T15:14:28.210Z,1.50
2022-11-28T15:19:35.348Z,1.63
2022-11-28T15:24:39.709Z,1.17
2022-11-28T15:29:54.222Z,1.40
2022-11-28T15:35:01.726Z,1.23
2022-11-28T15:40:07.343Z,1.07
2022-11-28T15:45:22.971Z,1.17
2022-11-28T15:50:28.843Z,1.20
2022-11-28T15:55:34.396Z,2.23
2022-11-28T16:00:42.545Z,1.47
2022-11-28T16:05:47.616Z,1.53
2022-11-28T16:10:51.336Z,1.50
2022-11-28T16:15:58.409Z,1.10
2022-11-28T16:21:02.584Z,1.20
2022-11-28T16:26:08.726Z,1.40
2022-11-28T16:31:21.607Z,1.40
2022-11-28T16:36:27.375Z,0.93
2022-11-28T16:41:32.157Z,1.10
2022-11-28T16:46:40.263Z,1.60
2022-11-28T16:51:44.176Z,1.40
2022-11-28T16:56:49.003Z,1.30
2022-11-28T17:01:55.241Z,1.57
2022-11-28T17:07:04.289Z,2.23
2022-11-28T17:12:12.764Z,0.97
2022-11-28T17:17:20.134Z,1.37
2022-11-28T17:22:26.639Z,1.20
2022-11-28T17:27:30.227Z,1.30
2022-11-28T17:32:35.526Z,2.20
2022-11-28T17:37:39.071Z,1.60
2022-11-28T17:42:42.654Z,2.00
2022-11-28T17:47:47.591Z,1.93
2022-11-28T17:52:51.889Z,1.40
2022-11-28T17:57:55.575Z,1.50
2022-11-28T18:03:01.908Z,1.60
2022-11-28T18:08:05.929Z,1.30
2022-11-28T18:13:12.351Z,1.80
2022-11-28T18:18:17.398Z,1.70
2022-11-28T18:23:20.991Z,1.40
2022-11-28T18:28:24.675Z,1.53
2022-11-28T18:33:29.952Z,1.87
2022-11-28T18:38:33.564Z,1.57
2022-11-28T18:43:37.674Z,1.97
2022-11-28T18:48:44.468Z,1.80
2022-11-28T18:53:49.236Z,2.50
2022-11-28T18:58:54.281Z,1.50
2022-11-28T19:04:00.811Z,1.40
2022-11-28T19:09:07.065Z,1.63
2022-11-28T19:14:15.273Z,2.03
2022-11-28T19:19:20.530Z,1.60
2022-11-28T19:24:25.516Z,2.40
2022-11-28T19:29:29.791Z,1.50
2022-11-28T19:34:34.844Z,1.50
2022-11-28T19:39:38.427Z,2.00
2022-11-28T19:44:43.153Z,1.73
2022-11-28T19:49:48.018Z,1.90
2022-11-28T19:54:52.679Z,1.67
2022-11-28T19:59:56.347Z,1.67
2022-11-28T20:05:01.379Z,1.27
2022-11-28T20:10:06.898Z,1.60
2022-11-28T20:15:16.692Z,1.57
2022-11-28T20:20:23.434Z,1.77
2022-11-28T20:25:28.079Z,1.50
2022-11-28T20:30:31.677Z,1.53
2022-11-28T20:35:36.808Z,1.83
2022-11-28T20:40:41.036Z,1.70
2022-11-28T20:45:44.627Z,1.97
2022-11-28T20:50:49.499Z,2.20
2022-11-28T20:56:00.802Z,1.77
2022-11-28T21:01:04.459Z,2.50
2022-11-28T21:06:09.526Z,2.67
2022-11-28T21:11:36.653Z,2.93
2022-11-28T21:16:38.971Z,1.73
2022-11-28T21:21:43.894Z,2.83
2022-11-28T21:26:52.963Z,2.10
2022-11-28T21:31:57.268Z,2.63
2022-11-28T21:37:02.241Z,1.77
2022-11-28T21:42:05.911Z,1.80
2022-11-28T21:47:09.466Z,1.57
2022-11-28T21:52:16.616Z,1.30
2022-11-28T21:57:21.182Z,1.43
2022-11-28T22:02:30.430Z,1.40
2022-11-28T22:07:37.825Z,1.67
2022-11-28T22:12:41.352Z,1.40
2022-11-28T22:17:44.923Z,1.23
2022-11-28T22:22:51.354Z,1.20
2022-11-28T22:27:55.119Z,1.30
2022-11-28T22:32:59.151Z,1.13
2022-11-28T22:38:04.104Z,1.50
2022-11-28T22:43:07.985Z,1.27
2022-11-28T22:48:11.717Z,1.23
2022-11-28T22:53:16.611Z,1.60
2022-11-28T22:58:20.151Z,1.20
2022-11-28T23:03:23.972Z,1.37
2022-11-28T23:08:30.632Z,1.20
2022-11-28T23:13:35.459Z,1.20
2022-11-28T23:18:40.016Z,1.00
2022-11-28T23:23:45.871Z,1.47
2022-11-28T23:28:50.886Z,1.30
2022-11-28T23:33:54.925Z,1.20
2022-11-28T23:39:01.797Z,1.20
2022-11-28T23:44:05.569Z,1.47
2022-11-28T23:49:09.688Z,1.33
2022-11-28T23:54:14.723Z,1.47
2022-11-28T23:59:18.454Z,1.50
